sensor_id;sensor_type;location;lat;lon;timestamp;P1;durP1;ratioP1;P2;durP2;ratioP2
73779;SDS011;62093;37.614;15.072;2022-10-17T00:01:51;10.15;;;7.00;;
73779;SDS011;62093;37.614;15.072;2022-10-17T00:04:17;11.00;;;6.88;;
73779;SDS011;62093;37.614;15.072;2022-10-17T00:06:43;9.63;;;7.07;;
73779;SDS011;62093;37.614;15.072;2022-10-17T00:09:09;8.77;;;6.30;;
73779;SDS011;62093;37.614;15.072;2022-10-17T00:11:35;10.20;;;7.63;;
73779;SDS011;62093;37.614;15.072;2022-10-17T00:14:00;9.98;;;6.85;;
73779;SDS011;62093;37.614;15.072;2022-10-17T00:16:31;10.48;;;7.40;;
73779;SDS011;62093;37.614;15.072;2022-10-17T00:19:00;10.27;;;7.13;;
73779;SDS011;62093;37.614;15.072;2022-10-17T00:21:27;9.93;;;6.93;;
73779;SDS011;62093;37.614;15.072;2022-10-17T00:23:53;10.32;;;6.72;;
73779;SDS011;62093;37.614;15.072;2022-10-17T00:26:19;10.15;;;7.15;;
73779;SDS011;62093;37.614;15.072;2022-10-17T00:28:46;10.00;;;6.85;;
73779;SDS011;62093;37.614;15.072;2022-10-17T00:31:13;10.50;;;6.83;;
73779;SDS011;62093;37.614;15.072;2022-10-17T00:33:40;10.10;;;7.30;;
73779;SDS011;62093;37.614;15.072;2022-10-17T00:36:15;10.65;;;7.30;;
73779;SDS011;62093;37.614;15.072;2022-10-17T00:38:44;10.00;;;7.00;;
73779;SDS011;62093;37.614;15.072;2022-10-17T00:41:12;11.02;;;7.22;;
73779;SDS011;62093;37.614;15.072;2022-10-17T00:44:00;9.13;;;6.93;;
73779;SDS011;62093;37.614;15.072;2022-10-17T00:46:32;10.30;;;6.97;;
73779;SDS011;62093;37.614;15.072;2022-10-17T00:49:03;10.15;;;6.82;;
73779;SDS011;62093;37.614;15.072;2022-10-17T00:51:36;10.13;;;6.53;;
73779;SDS011;62093;37.614;15.072;2022-10-17T00:54:06;9.70;;;6.90;;
73779;SDS011;62093;37.614;15.072;2022-10-17T00:56:34;9.20;;;6.13;;
73779;SDS011;62093;37.614;15.072;2022-10-17T00:59:00;10.23;;;6.95;;
73779;SDS011;62093;37.614;15.072;2022-10-17T01:01:26;9.50;;;6.80;;
73779;SDS011;62093;37.614;15.072;2022-10-17T01:03:52;9.52;;;6.57;;
73779;SDS011;62093;37.614;15.072;2022-10-17T01:06:18;11.40;;;7.10;;
73779;SDS011;62093;37.614;15.072;2022-10-17T01:08:44;9.43;;;6.53;;
73779;SDS011;62093;37.614;15.072;2022-10-17T01:16:44;9.27;;;6.37;;
73779;SDS011;62093;37.614;15.072;2022-10-17T01:36:00;9.43;;;6.40;;
73779;SDS011;62093;37.614;15.072;2022-10-17T01:38:48;9.15;;;6.65;;
73779;SDS011;62093;37.614;15.072;2022-10-17T01:41:32;11.40;;;6.75;;
73779;SDS011;62093;37.614;15.072;2022-10-17T01:44:13;8.73;;;6.23;;
73779;SDS011;62093;37.614;15.072;2022-10-17T01:46:49;8.95;;;5.95;;
73779;SDS011;62093;37.614;15.072;2022-10-17T01:49:19;10.07;;;6.47;;
73779;SDS011;62093;37.614;15.072;2022-10-17T01:52:26;9.13;;;5.97;;
73779;SDS011;62093;37.614;15.072;2022-10-17T01:54:57;8.90;;;6.13;;
73779;SDS011;62093;37.614;15.072;2022-10-17T01:57:41;9.67;;;6.33;;
73779;SDS011;62093;37.614;15.072;2022-10-17T02:00:13;8.93;;;6.03;;
73779;SDS011;62093;37.614;15.072;2022-10-17T02:02:42;9.13;;;6.28;;
73779;SDS011;62093;37.614;15.072;2022-10-17T02:05:10;8.50;;;5.70;;
73779;SDS011;62093;37.614;15.072;2022-10-17T02:07:37;9.75;;;6.35;;
73779;SDS011;62093;37.614;15.072;2022-10-17T02:10:09;9.13;;;5.90;;
73779;SDS011;62093;37.614;15.072;2022-10-17T02:12:44;9.18;;;6.47;;
73779;SDS011;62093;37.614;15.072;2022-10-17T02:15:40;9.05;;;6.10;;
73779;SDS011;62093;37.614;15.072;2022-10-17T02:18:55;9.00;;;6.22;;
73779;SDS011;62093;37.614;15.072;2022-10-17T02:24:04;8.47;;;6.07;;
73779;SDS011;62093;37.614;15.072;2022-10-17T02:26:43;9.05;;;6.20;;
73779;SDS011;62093;37.614;15.072;2022-10-17T02:29:20;8.80;;;6.03;;
73779;SDS011;62093;37.614;15.072;2022-10-17T02:31:55;9.30;;;6.15;;
73779;SDS011;62093;37.614;15.072;2022-10-17T02:34:40;9.07;;;5.95;;
73779;SDS011;62093;37.614;15.072;2022-10-17T02:37:12;8.63;;;5.80;;
73779;SDS011;62093;37.614;15.072;2022-10-17T02:39:41;8.85;;;6.05;;
73779;SDS011;62093;37.614;15.072;2022-10-17T02:42:10;8.70;;;5.60;;
73779;SDS011;62093;37.614;15.072;2022-10-17T02:44:39;8.63;;;6.10;;
73779;SDS011;62093;37.614;15.072;2022-10-17T02:50:19;9.17;;;5.90;;
73779;SDS011;62093;37.614;15.072;2022-10-17T02:52:52;9.20;;;6.43;;
73779;SDS011;62093;37.614;15.072;2022-10-17T02:55:32;8.52;;;6.10;;
73779;SDS011;62093;37.614;15.072;2022-10-17T03:00:53;8.25;;;5.50;;
73779;SDS011;62093;37.614;15.072;2022-10-17T03:03:20;10.20;;;6.00;;
73779;SDS011;62093;37.614;15.072;2022-10-17T03:05:47;8.48;;;5.55;;
73779;SDS011;62093;37.614;15.072;2022-10-17T03:08:13;8.50;;;5.63;;
73779;SDS011;62093;37.614;15.072;2022-10-17T03:10:39;8.80;;;6.00;;
73779;SDS011;62093;37.614;15.072;2022-10-17T03:13:05;8.70;;;5.83;;
73779;SDS011;62093;37.614;15.072;2022-10-17T03:15:36;9.10;;;6.20;;
73779;SDS011;62093;37.614;15.072;2022-10-17T03:18:02;8.80;;;6.00;;
73779;SDS011;62093;37.614;15.072;2022-10-17T03:20:28;8.15;;;5.57;;
73779;SDS011;62093;37.614;15.072;2022-10-17T03:22:54;8.53;;;5.70;;
73779;SDS011;62093;37.614;15.072;2022-10-17T03:25:20;8.00;;;5.85;;
73779;SDS011;62093;37.614;15.072;2022-10-17T03:27:47;8.32;;;5.65;;
73779;SDS011;62093;37.614;15.072;2022-10-17T03:30:13;9.15;;;5.85;;
73779;SDS011;62093;37.614;15.072;2022-10-17T03:32:39;8.20;;;5.93;;
73779;SDS011;62093;37.614;15.072;2022-10-17T03:35:05;9.33;;;6.07;;
73779;SDS011;62093;37.614;15.072;2022-10-17T03:37:32;8.85;;;6.32;;
73779;SDS011;62093;37.614;15.072;2022-10-17T03:39:58;8.57;;;5.43;;
73779;SDS011;62093;37.614;15.072;2022-10-17T03:42:24;8.85;;;5.80;;
73779;SDS011;62093;37.614;15.072;2022-10-17T03:44:50;8.17;;;5.23;;
73779;SDS011;62093;37.614;15.072;2022-10-17T03:47:15;8.48;;;5.82;;
73779;SDS011;62093;37.614;15.072;2022-10-17T03:49:42;8.73;;;5.65;;
73779;SDS011;62093;37.614;15.072;2022-10-17T03:52:12;8.20;;;5.10;;
73779;SDS011;62093;37.614;15.072;2022-10-17T03:54:39;9.05;;;5.55;;
73779;SDS011;62093;37.614;15.072;2022-10-17T03:57:05;8.20;;;5.13;;
73779;SDS011;62093;37.614;15.072;2022-10-17T03:59:31;7.72;;;5.20;;
73779;SDS011;62093;37.614;15.072;2022-10-17T04:02:03;8.02;;;5.57;;
73779;SDS011;62093;37.614;15.072;2022-10-17T04:04:29;9.17;;;5.40;;
73779;SDS011;62093;37.614;15.072;2022-10-17T04:06:56;8.95;;;5.82;;
73779;SDS011;62093;37.614;15.072;2022-10-17T04:09:22;9.02;;;5.78;;
73779;SDS011;62093;37.614;15.072;2022-10-17T04:11:54;9.27;;;5.80;;
73779;SDS011;62093;37.614;15.072;2022-10-17T04:14:21;7.90;;;5.13;;
73779;SDS011;62093;37.614;15.072;2022-10-17T04:16:47;8.20;;;5.70;;
73779;SDS011;62093;37.614;15.072;2022-10-17T04:19:19;8.25;;;5.20;;
73779;SDS011;62093;37.614;15.072;2022-10-17T04:21:46;7.75;;;5.18;;
73779;SDS011;62093;37.614;15.072;2022-10-17T04:24:13;8.00;;;5.32;;
73779;SDS011;62093;37.614;15.072;2022-10-17T04:26:48;8.10;;;5.20;;
73779;SDS011;62093;37.614;15.072;2022-10-17T04:29:16;8.27;;;5.75;;
73779;SDS011;62093;37.614;15.072;2022-10-17T04:31:45;8.30;;;5.15;;
73779;SDS011;62093;37.614;15.072;2022-10-17T04:34:40;7.90;;;4.75;;
73779;SDS011;62093;37.614;15.072;2022-10-17T04:37:06;8.45;;;5.30;;
73779;SDS011;62093;37.614;15.072;2022-10-17T04:39:32;7.70;;;4.97;;
73779;SDS011;62093;37.614;15.072;2022-10-17T04:41:58;8.05;;;5.30;;
73779;SDS011;62093;37.614;15.072;2022-10-17T04:44:25;7.75;;;4.97;;
73779;SDS011;62093;37.614;15.072;2022-10-17T04:46:51;9.07;;;5.20;;
73779;SDS011;62093;37.614;15.072;2022-10-17T04:49:18;8.13;;;5.25;;
73779;SDS011;62093;37.614;15.072;2022-10-17T04:51:47;7.77;;;4.87;;
73779;SDS011;62093;37.614;15.072;2022-10-17T04:54:22;8.15;;;5.22;;
73779;SDS011;62093;37.614;15.072;2022-10-17T04:56:54;7.50;;;4.97;;
73779;SDS011;62093;37.614;15.072;2022-10-17T04:59:20;8.35;;;5.35;;
73779;SDS011;62093;37.614;15.072;2022-10-17T05:01:51;8.80;;;5.45;;
73779;SDS011;62093;37.614;15.072;2022-10-17T05:04:17;7.63;;;4.90;;
73779;SDS011;62093;37.614;15.072;2022-10-17T05:06:43;8.07;;;5.10;;
73779;SDS011;62093;37.614;15.072;2022-10-17T05:09:28;8.18;;;5.32;;
73779;SDS011;62093;37.614;15.072;2022-10-17T05:11:54;7.32;;;4.82;;
73779;SDS011;62093;37.614;15.072;2022-10-17T05:14:21;8.77;;;5.47;;
73779;SDS011;62093;37.614;15.072;2022-10-17T05:16:48;7.93;;;4.90;;
73779;SDS011;62093;37.614;15.072;2022-10-17T05:19:14;7.97;;;5.05;;
73779;SDS011;62093;37.614;15.072;2022-10-17T05:21:44;8.18;;;5.25;;
73779;SDS011;62093;37.614;15.072;2022-10-17T05:24:12;9.25;;;5.50;;
73779;SDS011;62093;37.614;15.072;2022-10-17T05:26:38;8.73;;;4.77;;
73779;SDS011;62093;37.614;15.072;2022-10-17T05:29:05;8.07;;;5.13;;
73779;SDS011;62093;37.614;15.072;2022-10-17T05:31:35;7.40;;;5.18;;
73779;SDS011;62093;37.614;15.072;2022-10-17T05:34:02;7.70;;;4.95;;
73779;SDS011;62093;37.614;15.072;2022-10-17T05:36:31;8.23;;;4.78;;
73779;SDS011;62093;37.614;15.072;2022-10-17T05:38:59;7.97;;;4.67;;
73779;SDS011;62093;37.614;15.072;2022-10-17T05:41:26;7.25;;;4.82;;
73779;SDS011;62093;37.614;15.072;2022-10-17T05:43:52;7.55;;;5.00;;
73779;SDS011;62093;37.614;15.072;2022-10-17T05:46:26;7.63;;;4.60;;
73779;SDS011;62093;37.614;15.072;2022-10-17T05:48:52;8.03;;;5.03;;
73779;SDS011;62093;37.614;15.072;2022-10-17T05:51:20;9.57;;;4.82;;
73779;SDS011;62093;37.614;15.072;2022-10-17T05:53:45;8.43;;;5.00;;
73779;SDS011;62093;37.614;15.072;2022-10-17T05:56:18;7.28;;;4.72;;
73779;SDS011;62093;37.614;15.072;2022-10-17T05:58:46;8.27;;;4.97;;
73779;SDS011;62093;37.614;15.072;2022-10-17T06:01:25;9.48;;;5.03;;
73779;SDS011;62093;37.614;15.072;2022-10-17T06:03:51;8.57;;;5.38;;
73779;SDS011;62093;37.614;15.072;2022-10-17T06:06:17;8.52;;;4.90;;
73779;SDS011;62093;37.614;15.072;2022-10-17T06:08:45;7.77;;;5.00;;
73779;SDS011;62093;37.614;15.072;2022-10-17T06:11:14;9.25;;;5.53;;
73779;SDS011;62093;37.614;15.072;2022-10-17T06:13:40;7.90;;;5.10;;
73779;SDS011;62093;37.614;15.072;2022-10-17T06:16:12;9.75;;;5.22;;
73779;SDS011;62093;37.614;15.072;2022-10-17T06:18:38;9.10;;;5.57;;
73779;SDS011;62093;37.614;15.072;2022-10-17T06:21:05;8.18;;;5.03;;
73779;SDS011;62093;37.614;15.072;2022-10-17T06:23:33;9.00;;;4.97;;
73779;SDS011;62093;37.614;15.072;2022-10-17T06:26:12;9.73;;;5.20;;
73779;SDS011;62093;37.614;15.072;2022-10-17T06:28:38;10.13;;;5.05;;
73779;SDS011;62093;37.614;15.072;2022-10-17T06:31:06;8.17;;;4.80;;
73779;SDS011;62093;37.614;15.072;2022-10-17T06:33:34;8.13;;;4.78;;
73779;SDS011;62093;37.614;15.072;2022-10-17T06:36:00;8.43;;;5.55;;
73779;SDS011;62093;37.614;15.072;2022-10-17T06:38:29;8.32;;;5.10;;
73779;SDS011;62093;37.614;15.072;2022-10-17T06:43:35;7.60;;;5.10;;
73779;SDS011;62093;37.614;15.072;2022-10-17T06:46:21;8.73;;;5.65;;
73779;SDS011;62093;37.614;15.072;2022-10-17T06:48:56;9.30;;;5.47;;
73779;SDS011;62093;37.614;15.072;2022-10-17T06:51:42;8.63;;;5.38;;
73779;SDS011;62093;37.614;15.072;2022-10-17T06:54:11;8.65;;;5.57;;
73779;SDS011;62093;37.614;15.072;2022-10-17T06:56:57;7.77;;;5.10;;
73779;SDS011;62093;37.614;15.072;2022-10-17T06:59:35;9.68;;;5.65;;
73779;SDS011;62093;37.614;15.072;2022-10-17T07:02:08;9.48;;;5.40;;
73779;SDS011;62093;37.614;15.072;2022-10-17T07:04:35;8.35;;;5.22;;
73779;SDS011;62093;37.614;15.072;2022-10-17T07:07:01;8.30;;;5.22;;
73779;SDS011;62093;37.614;15.072;2022-10-17T07:09:28;8.60;;;5.30;;
73779;SDS011;62093;37.614;15.072;2022-10-17T07:11:57;7.90;;;5.15;;
73779;SDS011;62093;37.614;15.072;2022-10-17T07:14:24;8.70;;;5.47;;
73779;SDS011;62093;37.614;15.072;2022-10-17T07:16:58;8.07;;;5.00;;
73779;SDS011;62093;37.614;15.072;2022-10-17T07:19:27;8.75;;;5.18;;
73779;SDS011;62093;37.614;15.072;2022-10-17T07:21:53;9.30;;;5.90;;
73779;SDS011;62093;37.614;15.072;2022-10-17T07:24:19;8.65;;;5.75;;
73779;SDS011;62093;37.614;15.072;2022-10-17T07:26:50;10.80;;;5.35;;
73779;SDS011;62093;37.614;15.072;2022-10-17T07:29:16;9.77;;;6.07;;
73779;SDS011;62093;37.614;15.072;2022-10-17T07:32:02;10.53;;;6.00;;
73779;SDS011;62093;37.614;15.072;2022-10-17T07:34:33;11.20;;;6.55;;
73779;SDS011;62093;37.614;15.072;2022-10-17T07:37:00;10.73;;;6.72;;
73779;SDS011;62093;37.614;15.072;2022-10-17T07:39:27;10.15;;;6.60;;
73779;SDS011;62093;37.614;15.072;2022-10-17T07:41:53;10.50;;;6.50;;
73779;SDS011;62093;37.614;15.072;2022-10-17T07:44:21;9.97;;;6.27;;
73779;SDS011;62093;37.614;15.072;2022-10-17T07:46:49;10.02;;;6.68;;
73779;SDS011;62093;37.614;15.072;2022-10-17T07:49:16;9.70;;;6.05;;
73779;SDS011;62093;37.614;15.072;2022-10-17T07:51:42;11.18;;;6.78;;
73779;SDS011;62093;37.614;15.072;2022-10-17T07:54:08;9.90;;;6.47;;
73779;SDS011;62093;37.614;15.072;2022-10-17T07:56:34;10.13;;;6.57;;
73779;SDS011;62093;37.614;15.072;2022-10-17T07:59:00;11.13;;;6.35;;
73779;SDS011;62093;37.614;15.072;2022-10-17T08:01:26;10.17;;;6.17;;
73779;SDS011;62093;37.614;15.072;2022-10-17T08:03:52;8.90;;;5.47;;
73779;SDS011;62093;37.614;15.072;2022-10-17T08:06:18;9.43;;;6.05;;
73779;SDS011;62093;37.614;15.072;2022-10-17T08:08:44;9.53;;;5.70;;
73779;SDS011;62093;37.614;15.072;2022-10-17T08:11:11;10.60;;;6.60;;
73779;SDS011;62093;37.614;15.072;2022-10-17T08:13:38;10.45;;;6.95;;
73779;SDS011;62093;37.614;15.072;2022-10-17T08:16:06;9.87;;;6.40;;
73779;SDS011;62093;37.614;15.072;2022-10-17T08:18:34;10.90;;;6.63;;
73779;SDS011;62093;37.614;15.072;2022-10-17T08:21:01;8.90;;;5.88;;
73779;SDS011;62093;37.614;15.072;2022-10-17T08:23:30;10.43;;;6.38;;
73779;SDS011;62093;37.614;15.072;2022-10-17T08:26:00;9.95;;;6.78;;
73779;SDS011;62093;37.614;15.072;2022-10-17T08:28:27;9.67;;;6.13;;
73779;SDS011;62093;37.614;15.072;2022-10-17T08:31:00;10.80;;;7.38;;
73779;SDS011;62093;37.614;15.072;2022-10-17T08:33:30;10.55;;;6.55;;
73779;SDS011;62093;37.614;15.072;2022-10-17T08:35:58;11.65;;;6.95;;
73779;SDS011;62093;37.614;15.072;2022-10-17T08:38:25;10.93;;;6.95;;
73779;SDS011;62093;37.614;15.072;2022-10-17T08:40:54;11.47;;;7.77;;
73779;SDS011;62093;37.614;15.072;2022-10-17T08:43:31;10.82;;;6.90;;
73779;SDS011;62093;37.614;15.072;2022-10-17T08:46:06;11.13;;;7.40;;
73779;SDS011;62093;37.614;15.072;2022-10-17T08:48:36;11.30;;;7.60;;
73779;SDS011;62093;37.614;15.072;2022-10-17T08:51:20;11.13;;;7.05;;
73779;SDS011;62093;37.614;15.072;2022-10-17T08:53:55;12.90;;;7.73;;
73779;SDS011;62093;37.614;15.072;2022-10-17T08:56:32;12.07;;;8.13;;
73779;SDS011;62093;37.614;15.072;2022-10-17T08:59:06;11.27;;;7.25;;
73779;SDS011;62093;37.614;15.072;2022-10-17T09:06:43;12.07;;;8.33;;
73779;SDS011;62093;37.614;15.072;2022-10-17T09:17:16;12.10;;;7.70;;
73779;SDS011;62093;37.614;15.072;2022-10-17T09:22:24;11.10;;;7.18;;
73779;SDS011;62093;37.614;15.072;2022-10-17T09:24:55;11.07;;;7.10;;
73779;SDS011;62093;37.614;15.072;2022-10-17T09:27:32;10.10;;;6.65;;
73779;SDS011;62093;37.614;15.072;2022-10-17T09:32:47;10.97;;;6.97;;
73779;SDS011;62093;37.614;15.072;2022-10-17T09:35:14;11.55;;;6.90;;
73779;SDS011;62093;37.614;15.072;2022-10-17T09:37:41;9.90;;;7.00;;
73779;SDS011;62093;37.614;15.072;2022-10-17T09:40:10;11.65;;;7.20;;
73779;SDS011;62093;37.614;15.072;2022-10-17T09:42:43;10.73;;;6.95;;
73779;SDS011;62093;37.614;15.072;2022-10-17T09:45:15;10.80;;;6.93;;
73779;SDS011;62093;37.614;15.072;2022-10-17T09:47:49;10.57;;;7.28;;
73779;SDS011;62093;37.614;15.072;2022-10-17T09:50:26;13.15;;;7.15;;
73779;SDS011;62093;37.614;15.072;2022-10-17T09:52:54;11.27;;;6.90;;
73779;SDS011;62093;37.614;15.072;2022-10-17T09:55:44;11.82;;;7.28;;
73779;SDS011;62093;37.614;15.072;2022-10-17T09:58:12;11.73;;;6.97;;
73779;SDS011;62093;37.614;15.072;2022-10-17T10:00:43;11.98;;;7.63;;
73779;SDS011;62093;37.614;15.072;2022-10-17T10:05:44;10.02;;;6.90;;
73779;SDS011;62093;37.614;15.072;2022-10-17T10:08:28;10.65;;;7.20;;
73779;SDS011;62093;37.614;15.072;2022-10-17T10:11:03;12.10;;;6.90;;
73779;SDS011;62093;37.614;15.072;2022-10-17T10:13:31;11.65;;;6.75;;
73779;SDS011;62093;37.614;15.072;2022-10-17T10:18:45;11.15;;;6.65;;
73779;SDS011;62093;37.614;15.072;2022-10-17T10:21:14;12.82;;;6.78;;
73779;SDS011;62093;37.614;15.072;2022-10-17T10:29:05;10.73;;;7.25;;
73779;SDS011;62093;37.614;15.072;2022-10-17T10:31:44;10.77;;;6.32;;
73779;SDS011;62093;37.614;15.072;2022-10-17T10:34:18;12.18;;;7.00;;
73779;SDS011;62093;37.614;15.072;2022-10-17T10:36:49;11.03;;;6.43;;
73779;SDS011;62093;37.614;15.072;2022-10-17T10:42:04;11.98;;;7.45;;
73779;SDS011;62093;37.614;15.072;2022-10-17T10:44:32;11.18;;;7.20;;
73779;SDS011;62093;37.614;15.072;2022-10-17T10:47:14;11.02;;;7.38;;
73779;SDS011;62093;37.614;15.072;2022-10-17T10:49:52;10.43;;;7.17;;
73779;SDS011;62093;37.614;15.072;2022-10-17T10:52:55;11.65;;;7.20;;
73779;SDS011;62093;37.614;15.072;2022-10-17T10:56:10;11.68;;;7.40;;
73779;SDS011;62093;37.614;15.072;2022-10-17T10:58:30;10.95;;;7.35;;
73779;SDS011;62093;37.614;15.072;2022-10-17T11:01:04;12.27;;;7.32;;
73779;SDS011;62093;37.614;15.072;2022-10-17T11:03:38;12.50;;;7.23;;
73779;SDS011;62093;37.614;15.072;2022-10-17T11:06:12;10.25;;;6.75;;
73779;SDS011;62093;37.614;15.072;2022-10-17T11:11:16;12.23;;;7.10;;
73779;SDS011;62093;37.614;15.072;2022-10-17T11:13:52;12.02;;;7.43;;
73779;SDS011;62093;37.614;15.072;2022-10-17T11:16:29;11.17;;;7.30;;
73779;SDS011;62093;37.614;15.072;2022-10-17T11:22:22;12.07;;;7.22;;
73779;SDS011;62093;37.614;15.072;2022-10-17T11:24:57;12.05;;;7.57;;
73779;SDS011;62093;37.614;15.072;2022-10-17T11:27:24;10.70;;;6.88;;
73779;SDS011;62093;37.614;15.072;2022-10-17T11:29:54;13.00;;;7.50;;
73779;SDS011;62093;37.614;15.072;2022-10-17T11:32:23;10.70;;;7.40;;
73779;SDS011;62093;37.614;15.072;2022-10-17T11:40:38;10.75;;;6.78;;
73779;SDS011;62093;37.614;15.072;2022-10-17T11:43:17;10.60;;;6.70;;
73779;SDS011;62093;37.614;15.072;2022-10-17T11:45:50;10.50;;;6.88;;
73779;SDS011;62093;37.614;15.072;2022-10-17T11:48:22;10.63;;;7.10;;
73779;SDS011;62093;37.614;15.072;2022-10-17T11:51:12;9.57;;;6.32;;
73779;SDS011;62093;37.614;15.072;2022-10-17T11:56:14;10.10;;;6.30;;
73779;SDS011;62093;37.614;15.072;2022-10-17T12:01:53;11.43;;;6.90;;
73779;SDS011;62093;37.614;15.072;2022-10-17T12:10:12;11.17;;;6.93;;
73779;SDS011;62093;37.614;15.072;2022-10-17T12:12:43;11.27;;;7.13;;
73779;SDS011;62093;37.614;15.072;2022-10-17T12:17:39;11.98;;;7.50;;
73779;SDS011;62093;37.614;15.072;2022-10-17T12:25:58;10.73;;;6.72;;
73779;SDS011;62093;37.614;15.072;2022-10-17T12:28:26;10.80;;;6.53;;
73779;SDS011;62093;37.614;15.072;2022-10-17T12:38:42;10.63;;;6.85;;
73779;SDS011;62093;37.614;15.072;2022-10-17T12:41:15;10.25;;;6.28;;
73779;SDS011;62093;37.614;15.072;2022-10-17T12:44:01;10.52;;;6.80;;
73779;SDS011;62093;37.614;15.072;2022-10-17T12:55:12;10.23;;;6.75;;
73779;SDS011;62093;37.614;15.072;2022-10-17T13:05:49;11.32;;;6.80;;
73779;SDS011;62093;37.614;15.072;2022-10-17T13:08:22;11.35;;;6.90;;
73779;SDS011;62093;37.614;15.072;2022-10-17T13:10:49;11.75;;;6.43;;
73779;SDS011;62093;37.614;15.072;2022-10-17T13:13:20;12.50;;;7.00;;
73779;SDS011;62093;37.614;15.072;2022-10-17T13:15:49;10.52;;;6.70;;
73779;SDS011;62093;37.614;15.072;2022-10-17T13:18:18;11.25;;;7.10;;
73779;SDS011;62093;37.614;15.072;2022-10-17T13:23:28;10.23;;;6.93;;
73779;SDS011;62093;37.614;15.072;2022-10-17T13:26:09;11.67;;;6.90;;
73779;SDS011;62093;37.614;15.072;2022-10-17T13:28:37;10.85;;;6.80;;
73779;SDS011;62093;37.614;15.072;2022-10-17T13:31:03;9.95;;;6.45;;
73779;SDS011;62093;37.614;15.072;2022-10-17T13:33:33;10.82;;;7.15;;
73779;SDS011;62093;37.614;15.072;2022-10-17T13:36:03;10.32;;;6.38;;
73779;SDS011;62093;37.614;15.072;2022-10-17T13:38:33;11.40;;;6.50;;
73779;SDS011;62093;37.614;15.072;2022-10-17T13:41:01;11.35;;;6.93;;
73779;SDS011;62093;37.614;15.072;2022-10-17T13:43:27;12.73;;;6.38;;
73779;SDS011;62093;37.614;15.072;2022-10-17T13:45:57;10.63;;;5.85;;
73779;SDS011;62093;37.614;15.072;2022-10-17T13:48:29;11.00;;;6.30;;
73779;SDS011;62093;37.614;15.072;2022-10-17T13:51:01;11.20;;;6.63;;
73779;SDS011;62093;37.614;15.072;2022-10-17T13:56:00;11.05;;;6.93;;
73779;SDS011;62093;37.614;15.072;2022-10-17T13:58:38;12.15;;;7.25;;
73779;SDS011;62093;37.614;15.072;2022-10-17T14:01:06;10.55;;;6.72;;
73779;SDS011;62093;37.614;15.072;2022-10-17T14:03:33;9.97;;;6.53;;
73779;SDS011;62093;37.614;15.072;2022-10-17T14:13:50;10.32;;;6.55;;
73779;SDS011;62093;37.614;15.072;2022-10-17T14:16:17;11.83;;;6.37;;
73779;SDS011;62093;37.614;15.072;2022-10-17T14:18:45;11.20;;;6.75;;
73779;SDS011;62093;37.614;15.072;2022-10-17T14:21:21;12.07;;;6.95;;
73779;SDS011;62093;37.614;15.072;2022-10-17T14:23:48;9.63;;;6.10;;
73779;SDS011;62093;37.614;15.072;2022-10-17T14:26:22;10.15;;;6.35;;
73779;SDS011;62093;37.614;15.072;2022-10-17T14:28:50;11.13;;;6.40;;
73779;SDS011;62093;37.614;15.072;2022-10-17T14:31:30;10.02;;;6.10;;
73779;SDS011;62093;37.614;15.072;2022-10-17T14:33:57;10.10;;;6.60;;
73779;SDS011;62093;37.614;15.072;2022-10-17T14:36:29;10.73;;;6.47;;
73779;SDS011;62093;37.614;15.072;2022-10-17T14:38:58;11.45;;;6.60;;
73779;SDS011;62093;37.614;15.072;2022-10-17T14:41:25;10.33;;;6.50;;
73779;SDS011;62093;37.614;15.072;2022-10-17T14:44:06;9.85;;;5.80;;
73779;SDS011;62093;37.614;15.072;2022-10-17T14:46:42;11.60;;;6.78;;
73779;SDS011;62093;37.614;15.072;2022-10-17T14:49:16;11.52;;;6.75;;
73779;SDS011;62093;37.614;15.072;2022-10-17T14:54:34;10.53;;;6.33;;
73779;SDS011;62093;37.614;15.072;2022-10-17T14:57:07;10.85;;;6.88;;
73779;SDS011;62093;37.614;15.072;2022-10-17T14:59:38;10.93;;;6.55;;
73779;SDS011;62093;37.614;15.072;2022-10-17T15:02:04;9.77;;;5.97;;
73779;SDS011;62093;37.614;15.072;2022-10-17T15:04:30;10.77;;;6.40;;
73779;SDS011;62093;37.614;15.072;2022-10-17T15:06:56;10.88;;;6.32;;
73779;SDS011;62093;37.614;15.072;2022-10-17T15:09:22;12.33;;;6.47;;
73779;SDS011;62093;37.614;15.072;2022-10-17T15:11:48;10.50;;;6.82;;
73779;SDS011;62093;37.614;15.072;2022-10-17T15:14:14;10.63;;;6.88;;
73779;SDS011;62093;37.614;15.072;2022-10-17T15:16:40;9.38;;;6.32;;
73779;SDS011;62093;37.614;15.072;2022-10-17T15:19:06;9.87;;;6.27;;
73779;SDS011;62093;37.614;15.072;2022-10-17T15:21:32;9.15;;;6.57;;
73779;SDS011;62093;37.614;15.072;2022-10-17T15:23:57;10.27;;;6.40;;
73779;SDS011;62093;37.614;15.072;2022-10-17T15:26:30;10.70;;;6.57;;
73779;SDS011;62093;37.614;15.072;2022-10-17T15:28:58;10.13;;;5.93;;
73779;SDS011;62093;37.614;15.072;2022-10-17T15:31:24;11.02;;;6.65;;
73779;SDS011;62093;37.614;15.072;2022-10-17T15:33:52;10.73;;;6.45;;
73779;SDS011;62093;37.614;15.072;2022-10-17T15:36:25;9.70;;;6.20;;
73779;SDS011;62093;37.614;15.072;2022-10-17T15:38:57;9.90;;;6.03;;
73779;SDS011;62093;37.614;15.072;2022-10-17T15:41:25;9.77;;;6.35;;
73779;SDS011;62093;37.614;15.072;2022-10-17T15:43:53;10.80;;;5.88;;
73779;SDS011;62093;37.614;15.072;2022-10-17T15:46:20;10.40;;;6.18;;
73779;SDS011;62093;37.614;15.072;2022-10-17T15:48:48;10.93;;;6.47;;
73779;SDS011;62093;37.614;15.072;2022-10-17T15:51:14;10.23;;;6.32;;
73779;SDS011;62093;37.614;15.072;2022-10-17T15:53:40;11.02;;;6.30;;
73779;SDS011;62093;37.614;15.072;2022-10-17T15:56:06;9.35;;;6.30;;
73779;SDS011;62093;37.614;15.072;2022-10-17T15:58:37;10.93;;;6.55;;
73779;SDS011;62093;37.614;15.072;2022-10-17T16:01:10;9.33;;;6.20;;
73779;SDS011;62093;37.614;15.072;2022-10-17T16:03:49;10.00;;;6.13;;
73779;SDS011;62093;37.614;15.072;2022-10-17T16:06:18;10.57;;;6.63;;
73779;SDS011;62093;37.614;15.072;2022-10-17T16:08:46;9.80;;;6.25;;
73779;SDS011;62093;37.614;15.072;2022-10-17T16:11:16;10.80;;;6.40;;
73779;SDS011;62093;37.614;15.072;2022-10-17T16:13:55;10.13;;;6.60;;
73779;SDS011;62093;37.614;15.072;2022-10-17T16:16:23;10.80;;;6.25;;
73779;SDS011;62093;37.614;15.072;2022-10-17T16:18:49;10.88;;;6.90;;
73779;SDS011;62093;37.614;15.072;2022-10-17T16:21:15;10.43;;;6.30;;
73779;SDS011;62093;37.614;15.072;2022-10-17T16:23:42;9.70;;;6.20;;
73779;SDS011;62093;37.614;15.072;2022-10-17T16:26:07;11.00;;;6.57;;
73779;SDS011;62093;37.614;15.072;2022-10-17T16:28:34;9.55;;;5.85;;
73779;SDS011;62093;37.614;15.072;2022-10-17T16:31:00;10.77;;;6.47;;
73779;SDS011;62093;37.614;15.072;2022-10-17T16:33:26;11.35;;;6.50;;
73779;SDS011;62093;37.614;15.072;2022-10-17T16:35:52;12.63;;;6.53;;
73779;SDS011;62093;37.614;15.072;2022-10-17T16:38:18;10.23;;;6.37;;
73779;SDS011;62093;37.614;15.072;2022-10-17T16:40:44;10.07;;;6.40;;
73779;SDS011;62093;37.614;15.072;2022-10-17T16:43:10;10.85;;;6.40;;
73779;SDS011;62093;37.614;15.072;2022-10-17T16:45:37;9.85;;;6.68;;
73779;SDS011;62093;37.614;15.072;2022-10-17T16:48:04;11.17;;;6.80;;
73779;SDS011;62093;37.614;15.072;2022-10-17T16:50:30;16.85;;;6.88;;
73779;SDS011;62093;37.614;15.072;2022-10-17T16:53:00;12.55;;;6.65;;
73779;SDS011;62093;37.614;15.072;2022-10-17T16:55:28;10.90;;;6.80;;
73779;SDS011;62093;37.614;15.072;2022-10-17T16:57:54;13.20;;;7.33;;
73779;SDS011;62093;37.614;15.072;2022-10-17T17:00:19;12.13;;;7.05;;
73779;SDS011;62093;37.614;15.072;2022-10-17T17:02:48;11.90;;;6.80;;
73779;SDS011;62093;37.614;15.072;2022-10-17T17:05:14;16.07;;;7.40;;